sensor_id;sensor_type;location;lat;lon;timestamp;P1;durP1;ratioP1;P2;durP2;ratioP2
21424;SDS011;10873;51.132;16.848;2023-08-31T00:00:41;6.22;;;3.40;;
21424;SDS011;10873;51.132;16.848;2023-08-31T00:03:26;5.13;;;3.65;;
21424;SDS011;10873;51.132;16.848;2023-08-31T00:05:53;4.28;;;3.63;;
21424;SDS011;10873;51.132;16.848;2023-08-31T00:08:19;5.45;;;3.45;;
21424;SDS011;10873;51.132;16.848;2023-08-31T00:10:54;6.22;;;3.60;;
21424;SDS011;10873;51.132;16.848;2023-08-31T00:13:22;4.13;;;3.47;;
21424;SDS011;10873;51.132;16.848;2023-08-31T00:15:48;4.75;;;3.88;;
21424;SDS011;10873;51.132;16.848;2023-08-31T00:18:14;5.80;;;3.85;;
21424;SDS011;10873;51.132;16.848;2023-08-31T00:20:42;5.72;;;3.88;;
21424;SDS011;10873;51.132;16.848;2023-08-31T00:23:08;4.47;;;3.70;;
21424;SDS011;10873;51.132;16.848;2023-08-31T00:25:34;5.75;;;3.97;;
21424;SDS011;10873;51.132;16.848;2023-08-31T00:28:00;5.80;;;3.75;;
21424;SDS011;10873;51.132;16.848;2023-08-31T00:30:31;5.72;;;3.80;;
21424;SDS011;10873;51.132;16.848;2023-08-31T00:32:58;4.55;;;3.45;;
21424;SDS011;10873;51.132;16.848;2023-08-31T00:35:27;5.28;;;3.80;;
21424;SDS011;10873;51.132;16.848;2023-08-31T00:37:54;9.02;;;3.55;;
21424;SDS011;10873;51.132;16.848;2023-08-31T00:40:24;5.75;;;3.28;;
21424;SDS011;10873;51.132;16.848;2023-08-31T00:42:50;5.05;;;3.75;;
21424;SDS011;10873;51.132;16.848;2023-08-31T00:47:49;6.05;;;3.50;;
21424;SDS011;10873;51.132;16.848;2023-08-31T00:50:16;4.80;;;3.40;;
21424;SDS011;10873;51.132;16.848;2023-08-31T00:52:42;4.65;;;3.13;;
21424;SDS011;10873;51.132;16.848;2023-08-31T00:55:13;5.07;;;2.95;;
21424;SDS011;10873;51.132;16.848;2023-08-31T00:57:39;6.07;;;3.03;;
21424;SDS011;10873;51.132;16.848;2023-08-31T01:05:18;6.80;;;3.35;;
21424;SDS011;10873;51.132;16.848;2023-08-31T01:07:56;5.35;;;3.70;;
21424;SDS011;10873;51.132;16.848;2023-08-31T01:10:29;6.35;;;3.83;;
21424;SDS011;10873;51.132;16.848;2023-08-31T01:13:07;7.75;;;3.45;;
21424;SDS011;10873;51.132;16.848;2023-08-31T01:15:39;7.03;;;3.53;;
21424;SDS011;10873;51.132;16.848;2023-08-31T01:18:07;4.47;;;3.28;;
21424;SDS011;10873;51.132;16.848;2023-08-31T01:20:38;4.88;;;3.47;;
21424;SDS011;10873;51.132;16.848;2023-08-31T01:23:11;6.03;;;3.42;;
21424;SDS011;10873;51.132;16.848;2023-08-31T01:25:45;4.55;;;3.38;;
21424;SDS011;10873;51.132;16.848;2023-08-31T01:28:13;5.55;;;3.58;;
21424;SDS011;10873;51.132;16.848;2023-08-31T01:30:41;4.03;;;3.10;;
21424;SDS011;10873;51.132;16.848;2023-08-31T01:33:07;3.72;;;3.13;;
21424;SDS011;10873;51.132;16.848;2023-08-31T01:35:33;7.30;;;3.60;;
21424;SDS011;10873;51.132;16.848;2023-08-31T01:38:04;4.13;;;3.10;;
21424;SDS011;10873;51.132;16.848;2023-08-31T01:40:35;4.03;;;3.13;;
21424;SDS011;10873;51.132;16.848;2023-08-31T01:43:06;4.18;;;3.35;;
21424;SDS011;10873;51.132;16.848;2023-08-31T01:45:33;4.10;;;3.03;;
21424;SDS011;10873;51.132;16.848;2023-08-31T01:48:00;5.10;;;3.22;;
21424;SDS011;10873;51.132;16.848;2023-08-31T01:50:26;6.30;;;3.35;;
21424;SDS011;10873;51.132;16.848;2023-08-31T01:52:53;6.53;;;3.33;;
21424;SDS011;10873;51.132;16.848;2023-08-31T01:55:19;8.85;;;3.13;;
21424;SDS011;10873;51.132;16.848;2023-08-31T01:57:47;11.82;;;3.30;;
21424;SDS011;10873;51.132;16.848;2023-08-31T02:00:14;4.20;;;2.70;;
21424;SDS011;10873;51.132;16.848;2023-08-31T02:02:42;5.68;;;3.38;;
21424;SDS011;10873;51.132;16.848;2023-08-31T02:05:09;7.95;;;3.38;;
21424;SDS011;10873;51.132;16.848;2023-08-31T02:07:35;5.22;;;3.17;;
21424;SDS011;10873;51.132;16.848;2023-08-31T02:10:01;6.38;;;2.75;;
21424;SDS011;10873;51.132;16.848;2023-08-31T02:12:28;5.57;;;3.30;;
21424;SDS011;10873;51.132;16.848;2023-08-31T02:14:54;5.32;;;3.13;;
21424;SDS011;10873;51.132;16.848;2023-08-31T02:17:22;3.85;;;2.80;;
21424;SDS011;10873;51.132;16.848;2023-08-31T02:19:48;5.45;;;3.20;;
21424;SDS011;10873;51.132;16.848;2023-08-31T02:22:14;4.55;;;2.80;;
21424;SDS011;10873;51.132;16.848;2023-08-31T02:24:40;4.47;;;2.90;;
21424;SDS011;10873;51.132;16.848;2023-08-31T02:27:07;8.27;;;3.40;;
21424;SDS011;10873;51.132;16.848;2023-08-31T02:29:32;3.70;;;2.70;;
21424;SDS011;10873;51.132;16.848;2023-08-31T02:31:59;3.22;;;2.70;;
21424;SDS011;10873;51.132;16.848;2023-08-31T02:34:26;5.97;;;2.80;;
21424;SDS011;10873;51.132;16.848;2023-08-31T02:36:52;6.30;;;2.80;;
21424;SDS011;10873;51.132;16.848;2023-08-31T02:39:18;4.30;;;2.83;;
21424;SDS011;10873;51.132;16.848;2023-08-31T02:41:45;5.53;;;2.78;;
21424;SDS011;10873;51.132;16.848;2023-08-31T02:44:11;4.68;;;2.67;;
21424;SDS011;10873;51.132;16.848;2023-08-31T02:46:37;6.80;;;3.30;;
21424;SDS011;10873;51.132;16.848;2023-08-31T02:49:04;4.88;;;2.70;;
21424;SDS011;10873;51.132;16.848;2023-08-31T02:51:31;3.40;;;2.88;;
21424;SDS011;10873;51.132;16.848;2023-08-31T02:53:57;3.20;;;2.53;;
21424;SDS011;10873;51.132;16.848;2023-08-31T02:56:23;5.90;;;2.88;;
21424;SDS011;10873;51.132;16.848;2023-08-31T02:58:49;5.50;;;2.97;;
21424;SDS011;10873;51.132;16.848;2023-08-31T03:01:16;5.40;;;2.22;;
21424;SDS011;10873;51.132;16.848;2023-08-31T03:03:42;4.07;;;2.47;;
21424;SDS011;10873;51.132;16.848;2023-08-31T03:06:11;5.82;;;2.40;;
21424;SDS011;10873;51.132;16.848;2023-08-31T03:08:38;7.85;;;2.53;;
21424;SDS011;10873;51.132;16.848;2023-08-31T03:11:05;5.53;;;2.47;;
21424;SDS011;10873;51.132;16.848;2023-08-31T03:13:31;2.83;;;2.35;;
21424;SDS011;10873;51.132;16.848;2023-08-31T03:15:59;2.95;;;2.67;;
21424;SDS011;10873;51.132;16.848;2023-08-31T03:18:25;5.03;;;3.05;;
21424;SDS011;10873;51.132;16.848;2023-08-31T03:20:51;3.28;;;2.97;;
21424;SDS011;10873;51.132;16.848;2023-08-31T03:23:17;5.25;;;3.10;;
21424;SDS011;10873;51.132;16.848;2023-08-31T03:25:45;3.30;;;2.80;;
21424;SDS011;10873;51.132;16.848;2023-08-31T03:28:11;3.92;;;3.03;;
21424;SDS011;10873;51.132;16.848;2023-08-31T03:30:37;5.05;;;2.85;;
21424;SDS011;10873;51.132;16.848;2023-08-31T03:33:04;5.05;;;2.70;;
21424;SDS011;10873;51.132;16.848;2023-08-31T03:35:31;8.40;;;2.90;;
21424;SDS011;10873;51.132;16.848;2023-08-31T03:37:57;3.53;;;2.70;;
21424;SDS011;10873;51.132;16.848;2023-08-31T03:40:23;4.18;;;2.70;;
21424;SDS011;10873;51.132;16.848;2023-08-31T03:42:50;4.68;;;2.58;;
21424;SDS011;10873;51.132;16.848;2023-08-31T03:45:18;4.05;;;2.70;;
21424;SDS011;10873;51.132;16.848;2023-08-31T03:47:44;8.80;;;3.10;;
21424;SDS011;10873;51.132;16.848;2023-08-31T03:50:10;4.88;;;2.92;;
21424;SDS011;10873;51.132;16.848;2023-08-31T03:52:36;5.85;;;2.90;;
21424;SDS011;10873;51.132;16.848;2023-08-31T03:55:02;4.15;;;2.60;;
21424;SDS011;10873;51.132;16.848;2023-08-31T03:57:28;2.80;;;2.45;;
21424;SDS011;10873;51.132;16.848;2023-08-31T03:59:56;4.95;;;2.40;;
21424;SDS011;10873;51.132;16.848;2023-08-31T04:02:22;8.45;;;2.50;;
21424;SDS011;10873;51.132;16.848;2023-08-31T04:04:48;7.53;;;2.90;;
21424;SDS011;10873;51.132;16.848;2023-08-31T04:07:14;6.07;;;2.70;;
21424;SDS011;10873;51.132;16.848;2023-08-31T04:09:41;5.13;;;2.67;;
21424;SDS011;10873;51.132;16.848;2023-08-31T04:12:07;5.65;;;2.85;;
21424;SDS011;10873;51.132;16.848;2023-08-31T04:14:33;4.20;;;2.53;;
21424;SDS011;10873;51.132;16.848;2023-08-31T04:17:01;5.47;;;2.42;;
21424;SDS011;10873;51.132;16.848;2023-08-31T04:19:27;4.90;;;2.42;;
21424;SDS011;10873;51.132;16.848;2023-08-31T04:21:53;5.97;;;2.50;;
21424;SDS011;10873;51.132;16.848;2023-08-31T04:24:19;4.13;;;2.75;;
21424;SDS011;10873;51.132;16.848;2023-08-31T04:26:45;3.33;;;2.22;;
21424;SDS011;10873;51.132;16.848;2023-08-31T04:29:13;7.55;;;2.58;;
21424;SDS011;10873;51.132;16.848;2023-08-31T04:31:39;7.72;;;2.63;;
21424;SDS011;10873;51.132;16.848;2023-08-31T04:34:07;11.35;;;3.00;;
21424;SDS011;10873;51.132;16.848;2023-08-31T04:36:33;8.63;;;2.45;;
21424;SDS011;10873;51.132;16.848;2023-08-31T04:38:59;13.25;;;2.75;;
21424;SDS011;10873;51.132;16.848;2023-08-31T04:41:25;7.60;;;3.08;;
21424;SDS011;10873;51.132;16.848;2023-08-31T04:43:51;6.18;;;2.50;;
21424;SDS011;10873;51.132;16.848;2023-08-31T04:46:18;5.57;;;2.90;;
21424;SDS011;10873;51.132;16.848;2023-08-31T04:48:44;6.20;;;2.60;;
21424;SDS011;10873;51.132;16.848;2023-08-31T04:53:57;7.90;;;2.80;;
21424;SDS011;10873;51.132;16.848;2023-08-31T04:56:24;3.50;;;2.40;;
21424;SDS011;10873;51.132;16.848;2023-08-31T04:58:49;5.40;;;2.50;;
21424;SDS011;10873;51.132;16.848;2023-08-31T05:01:16;3.90;;;2.47;;
21424;SDS011;10873;51.132;16.848;2023-08-31T05:03:42;5.70;;;2.38;;
21424;SDS011;10873;51.132;16.848;2023-08-31T05:06:08;4.03;;;1.85;;
21424;SDS011;10873;51.132;16.848;2023-08-31T05:08:35;37.10;;;5.90;;
21424;SDS011;10873;51.132;16.848;2023-08-31T05:11:01;21.45;;;3.42;;
21424;SDS011;10873;51.132;16.848;2023-08-31T05:13:27;11.82;;;2.97;;
21424;SDS011;10873;51.132;16.848;2023-08-31T05:15:53;9.82;;;2.53;;
21424;SDS011;10873;51.132;16.848;2023-08-31T05:18:19;13.07;;;3.00;;
21424;SDS011;10873;51.132;16.848;2023-08-31T05:20:45;21.63;;;2.72;;
21424;SDS011;10873;51.132;16.848;2023-08-31T05:23:13;16.85;;;2.90;;
21424;SDS011;10873;51.132;16.848;2023-08-31T05:25:42;13.02;;;2.17;;
21424;SDS011;10873;51.132;16.848;2023-08-31T05:28:08;6.47;;;2.67;;
21424;SDS011;10873;51.132;16.848;2023-08-31T05:30:34;11.10;;;2.38;;
21424;SDS011;10873;51.132;16.848;2023-08-31T05:33:00;6.43;;;2.50;;
21424;SDS011;10873;51.132;16.848;2023-08-31T05:35:26;6.75;;;2.13;;
21424;SDS011;10873;51.132;16.848;2023-08-31T05:37:52;5.25;;;2.03;;
21424;SDS011;10873;51.132;16.848;2023-08-31T05:40:18;11.50;;;2.83;;
21424;SDS011;10873;51.132;16.848;2023-08-31T05:42:46;7.97;;;2.42;;
21424;SDS011;10873;51.132;16.848;2023-08-31T05:45:12;3.55;;;2.05;;
21424;SDS011;10873;51.132;16.848;2023-08-31T05:47:38;3.40;;;2.10;;
21424;SDS011;10873;51.132;16.848;2023-08-31T05:50:06;8.65;;;2.53;;
21424;SDS011;10873;51.132;16.848;2023-08-31T05:52:32;6.15;;;2.38;;
21424;SDS011;10873;51.132;16.848;2023-08-31T05:54:58;5.45;;;1.95;;
21424;SDS011;10873;51.132;16.848;2023-08-31T05:57:25;2.75;;;1.98;;
21424;SDS011;10873;51.132;16.848;2023-08-31T05:59:54;5.40;;;2.38;;
21424;SDS011;10873;51.132;16.848;2023-08-31T06:02:20;4.03;;;2.20;;
21424;SDS011;10873;51.132;16.848;2023-08-31T06:04:46;7.25;;;2.08;;
21424;SDS011;10873;51.132;16.848;2023-08-31T06:07:13;5.82;;;2.03;;
21424;SDS011;10873;51.132;16.848;2023-08-31T06:09:38;6.15;;;2.15;;
21424;SDS011;10873;51.132;16.848;2023-08-31T06:12:05;4.03;;;2.20;;
21424;SDS011;10873;51.132;16.848;2023-08-31T06:14:32;9.00;;;2.10;;
21424;SDS011;10873;51.132;16.848;2023-08-31T06:16:59;3.00;;;1.95;;
21424;SDS011;10873;51.132;16.848;2023-08-31T06:19:25;3.78;;;1.90;;
21424;SDS011;10873;51.132;16.848;2023-08-31T06:21:51;3.28;;;2.00;;
21424;SDS011;10873;51.132;16.848;2023-08-31T06:24:17;3.95;;;1.80;;
21424;SDS011;10873;51.132;16.848;2023-08-31T06:26:43;3.45;;;2.05;;
21424;SDS011;10873;51.132;16.848;2023-08-31T06:29:09;2.50;;;2.10;;
21424;SDS011;10873;51.132;16.848;2023-08-31T06:31:36;5.10;;;2.20;;
21424;SDS011;10873;51.132;16.848;2023-08-31T06:34:03;4.20;;;2.10;;
21424;SDS011;10873;51.132;16.848;2023-08-31T06:36:30;4.90;;;2.00;;
21424;SDS011;10873;51.132;16.848;2023-08-31T06:38:56;2.83;;;2.20;;
21424;SDS011;10873;51.132;16.848;2023-08-31T06:41:22;4.38;;;2.28;;
21424;SDS011;10873;51.132;16.848;2023-08-31T06:43:48;3.92;;;2.15;;
21424;SDS011;10873;51.132;16.848;2023-08-31T06:46:14;6.38;;;2.40;;
21424;SDS011;10873;51.132;16.848;2023-08-31T06:48:40;3.30;;;2.25;;
21424;SDS011;10873;51.132;16.848;2023-08-31T06:51:07;2.38;;;1.92;;
21424;SDS011;10873;51.132;16.848;2023-08-31T06:53:33;4.30;;;2.50;;
21424;SDS011;10873;51.132;16.848;2023-08-31T06:55:59;2.80;;;2.20;;
21424;SDS011;10873;51.132;16.848;2023-08-31T06:58:25;4.47;;;2.20;;
21424;SDS011;10873;51.132;16.848;2023-08-31T07:00:51;2.50;;;2.20;;
21424;SDS011;10873;51.132;16.848;2023-08-31T07:03:17;2.47;;;2.22;;
21424;SDS011;10873;51.132;16.848;2023-08-31T07:05:44;2.60;;;2.40;;
21424;SDS011;10873;51.132;16.848;2023-08-31T07:08:11;3.33;;;2.20;;
21424;SDS011;10873;51.132;16.848;2023-08-31T07:10:37;3.17;;;2.30;;
21424;SDS011;10873;51.132;16.848;2023-08-31T07:13:03;5.43;;;2.80;;
21424;SDS011;10873;51.132;16.848;2023-08-31T07:15:30;2.53;;;2.33;;
21424;SDS011;10873;51.132;16.848;2023-08-31T07:17:56;2.45;;;2.25;;
21424;SDS011;10873;51.132;16.848;2023-08-31T07:20:22;3.45;;;2.35;;
21424;SDS011;10873;51.132;16.848;2023-08-31T07:22:48;2.60;;;2.40;;
21424;SDS011;10873;51.132;16.848;2023-08-31T07:25:15;4.25;;;2.78;;
21424;SDS011;10873;51.132;16.848;2023-08-31T07:27:41;4.80;;;2.80;;
21424;SDS011;10873;51.132;16.848;2023-08-31T07:30:08;2.85;;;2.63;;
21424;SDS011;10873;51.132;16.848;2023-08-31T07:32:35;4.03;;;2.83;;
21424;SDS011;10873;51.132;16.848;2023-08-31T07:35:01;4.47;;;2.83;;
21424;SDS011;10873;51.132;16.848;2023-08-31T07:37:30;3.03;;;2.80;;
21424;SDS011;10873;51.132;16.848;2023-08-31T07:39:56;3.80;;;3.10;;
21424;SDS011;10873;51.132;16.848;2023-08-31T07:42:23;4.05;;;2.90;;
21424;SDS011;10873;51.132;16.848;2023-08-31T07:44:49;3.72;;;2.88;;
21424;SDS011;10873;51.132;16.848;2023-08-31T07:47:15;3.90;;;3.08;;
21424;SDS011;10873;51.132;16.848;2023-08-31T07:49:41;6.47;;;3.03;;
21424;SDS011;10873;51.132;16.848;2023-08-31T07:52:07;3.75;;;3.20;;
21424;SDS011;10873;51.132;16.848;2023-08-31T07:54:33;4.55;;;3.00;;
21424;SDS011;10873;51.132;16.848;2023-08-31T07:56:59;5.40;;;3.33;;
21424;SDS011;10873;51.132;16.848;2023-08-31T07:59:27;10.63;;;3.70;;
21424;SDS011;10873;51.132;16.848;2023-08-31T08:01:53;10.15;;;4.63;;
21424;SDS011;10873;51.132;16.848;2023-08-31T08:04:19;11.05;;;4.97;;
21424;SDS011;10873;51.132;16.848;2023-08-31T08:06:44;10.55;;;5.60;;
21424;SDS011;10873;51.132;16.848;2023-08-31T08:09:11;11.68;;;5.55;;
21424;SDS011;10873;51.132;16.848;2023-08-31T08:11:37;15.93;;;5.13;;
21424;SDS011;10873;51.132;16.848;2023-08-31T08:14:04;15.02;;;5.38;;
21424;SDS011;10873;51.132;16.848;2023-08-31T08:16:31;13.45;;;5.30;;
21424;SDS011;10873;51.132;16.848;2023-08-31T08:18:57;11.32;;;5.53;;
21424;SDS011;10873;51.132;16.848;2023-08-31T08:21:23;11.00;;;5.30;;
21424;SDS011;10873;51.132;16.848;2023-08-31T08:23:49;10.73;;;5.18;;
21424;SDS011;10873;51.132;16.848;2023-08-31T08:26:16;9.43;;;4.80;;
21424;SDS011;10873;51.132;16.848;2023-08-31T08:28:42;7.97;;;4.53;;
21424;SDS011;10873;51.132;16.848;2023-08-31T08:31:08;10.50;;;4.93;;
21424;SDS011;10873;51.132;16.848;2023-08-31T08:33:35;8.10;;;4.15;;
21424;SDS011;10873;51.132;16.848;2023-08-31T08:36:01;10.85;;;4.55;;
21424;SDS011;10873;51.132;16.848;2023-08-31T08:38:28;9.32;;;3.88;;
21424;SDS011;10873;51.132;16.848;2023-08-31T08:40:54;5.47;;;4.07;;
21424;SDS011;10873;51.132;16.848;2023-08-31T08:43:21;5.97;;;3.75;;
21424;SDS011;10873;51.132;16.848;2023-08-31T08:45:50;7.75;;;3.60;;
21424;SDS011;10873;51.132;16.848;2023-08-31T08:48:16;7.82;;;3.70;;
21424;SDS011;10873;51.132;16.848;2023-08-31T08:50:45;7.43;;;3.40;;
21424;SDS011;10873;51.132;16.848;2023-08-31T08:53:12;5.32;;;3.15;;
21424;SDS011;10873;51.132;16.848;2023-08-31T08:55:40;4.85;;;3.13;;
21424;SDS011;10873;51.132;16.848;2023-08-31T08:58:06;5.57;;;2.85;;
21424;SDS011;10873;51.132;16.848;2023-08-31T09:00:33;4.97;;;3.22;;
21424;SDS011;10873;51.132;16.848;2023-08-31T09:03:00;5.97;;;3.58;;
21424;SDS011;10873;51.132;16.848;2023-08-31T09:05:30;6.15;;;3.10;;
21424;SDS011;10873;51.132;16.848;2023-08-31T09:08:02;4.40;;;2.92;;
21424;SDS011;10873;51.132;16.848;2023-08-31T09:10:39;4.05;;;2.88;;
21424;SDS011;10873;51.132;16.848;2023-08-31T09:13:06;4.13;;;2.60;;
21424;SDS011;10873;51.132;16.848;2023-08-31T09:15:38;3.83;;;2.60;;
21424;SDS011;10873;51.132;16.848;2023-08-31T09:18:05;7.72;;;2.50;;
21424;SDS011;10873;51.132;16.848;2023-08-31T09:20:31;3.35;;;2.40;;
21424;SDS011;10873;51.132;16.848;2023-08-31T09:22:58;2.60;;;2.35;;
21424;SDS011;10873;51.132;16.848;2023-08-31T09:25:25;5.03;;;2.53;;
21424;SDS011;10873;51.132;16.848;2023-08-31T09:27:51;6.53;;;2.63;;
21424;SDS011;10873;51.132;16.848;2023-08-31T09:30:17;4.15;;;2.28;;
21424;SDS011;10873;51.132;16.848;2023-08-31T09:32:43;4.13;;;2.45;;
21424;SDS011;10873;51.132;16.848;2023-08-31T09:35:17;6.20;;;3.33;;
21424;SDS011;10873;51.132;16.848;2023-08-31T09:37:45;5.90;;;3.65;;
21424;SDS011;10873;51.132;16.848;2023-08-31T09:40:21;5.45;;;3.35;;
21424;SDS011;10873;51.132;16.848;2023-08-31T09:42:50;6.75;;;3.10;;
21424;SDS011;10873;51.132;16.848;2023-08-31T09:45:16;4.97;;;2.92;;
21424;SDS011;10873;51.132;16.848;2023-08-31T09:47:43;5.10;;;3.13;;
21424;SDS011;10873;51.132;16.848;2023-08-31T09:50:09;4.20;;;2.90;;
21424;SDS011;10873;51.132;16.848;2023-08-31T09:52:36;4.45;;;2.95;;
21424;SDS011;10873;51.132;16.848;2023-08-31T09:55:04;4.20;;;3.00;;
21424;SDS011;10873;51.132;16.848;2023-08-31T09:57:31;5.53;;;3.45;;
21424;SDS011;10873;51.132;16.848;2023-08-31T09:59:59;5.18;;;3.42;;
21424;SDS011;10873;51.132;16.848;2023-08-31T10:02:25;6.47;;;3.78;;
21424;SDS011;10873;51.132;16.848;2023-08-31T10:04:53;5.40;;;3.30;;
21424;SDS011;10873;51.132;16.848;2023-08-31T10:07:19;5.35;;;3.60;;
21424;SDS011;10873;51.132;16.848;2023-08-31T10:09:46;5.78;;;3.50;;
21424;SDS011;10873;51.132;16.848;2023-08-31T10:12:13;6.13;;;4.18;;
21424;SDS011;10873;51.132;16.848;2023-08-31T10:14:39;7.03;;;3.67;;
21424;SDS011;10873;51.132;16.848;2023-08-31T10:17:07;5.63;;;4.05;;
21424;SDS011;10873;51.132;16.848;2023-08-31T10:19:33;7.28;;;3.85;;
21424;SDS011;10873;51.132;16.848;2023-08-31T10:21:59;10.82;;;4.10;;
21424;SDS011;10873;51.132;16.848;2023-08-31T10:27:24;6.03;;;4.07;;
21424;SDS011;10873;51.132;16.848;2023-08-31T10:29:51;6.90;;;3.95;;
21424;SDS011;10873;51.132;16.848;2023-08-31T10:32:18;7.93;;;4.07;;
21424;SDS011;10873;51.132;16.848;2023-08-31T10:34:48;6.85;;;3.85;;
21424;SDS011;10873;51.132;16.848;2023-08-31T10:37:30;7.50;;;3.90;;
21424;SDS011;10873;51.132;16.848;2023-08-31T10:40:06;8.82;;;4.10;;
21424;SDS011;10873;51.132;16.848;2023-08-31T10:42:40;9.90;;;3.90;;
21424;SDS011;10873;51.132;16.848;2023-08-31T10:45:08;7.45;;;4.40;;
21424;SDS011;10873;51.132;16.848;2023-08-31T10:47:39;6.45;;;4.03;;
21424;SDS011;10873;51.132;16.848;2023-08-31T10:50:15;6.38;;;3.65;;
21424;SDS011;10873;51.132;16.848;2023-08-31T10:52:43;8.40;;;3.45;;
21424;SDS011;10873;51.132;16.848;2023-08-31T10:55:11;7.30;;;3.83;;
21424;SDS011;10873;51.132;16.848;2023-08-31T10:57:37;6.90;;;3.72;;
21424;SDS011;10873;51.132;16.848;2023-08-31T11:00:05;5.95;;;3.38;;
21424;SDS011;10873;51.132;16.848;2023-08-31T11:02:35;9.10;;;3.83;;
21424;SDS011;10873;51.132;16.848;2023-08-31T11:05:07;7.00;;;3.47;;
21424;SDS011;10873;51.132;16.848;2023-08-31T11:07:34;9.38;;;4.45;;
21424;SDS011;10873;51.132;16.848;2023-08-31T11:10:08;6.70;;;3.70;;
21424;SDS011;10873;51.132;16.848;2023-08-31T11:12:36;7.80;;;4.03;;
21424;SDS011;10873;51.132;16.848;2023-08-31T11:15:02;7.25;;;4.00;;
21424;SDS011;10873;51.132;16.848;2023-08-31T11:17:29;7.10;;;3.70;;
21424;SDS011;10873;51.132;16.848;2023-08-31T11:19:58;8.15;;;4.28;;
21424;SDS011;10873;51.132;16.848;2023-08-31T11:22:26;7.32;;;3.38;;
21424;SDS011;10873;51.132;16.848;2023-08-31T11:24:52;7.03;;;3.80;;
21424;SDS011;10873;51.132;16.848;2023-08-31T11:27:19;6.32;;;3.50;;
21424;SDS011;10873;51.132;16.848;2023-08-31T11:29:45;6.93;;;3.72;;
21424;SDS011;10873;51.132;16.848;2023-08-31T11:32:12;7.50;;;3.95;;
21424;SDS011;10873;51.132;16.848;2023-08-31T11:34:39;7.85;;;4.00;;
21424;SDS011;10873;51.132;16.848;2023-08-31T11:37:07;6.72;;;3.65;;
21424;SDS011;10873;51.132;16.848;2023-08-31T11:39:36;7.38;;;3.70;;
21424;SDS011;10873;51.132;16.848;2023-08-31T11:42:02;6.22;;;3.72;;
21424;SDS011;10873;51.132;16.848;2023-08-31T11:44:29;7.75;;;3.65;;
21424;SDS011;10873;51.132;16.848;2023-08-31T11:46:56;5.80;;;3.40;;
21424;SDS011;10873;51.132;16.848;2023-08-31T11:49:22;5.55;;;3.42;;
21424;SDS011;10873;51.132;16.848;2023-08-31T11:51:48;7.40;;;3.80;;
21424;SDS011;10873;51.132;16.848;2023-08-31T11:54:16;6.28;;;3.33;;
21424;SDS011;10873;51.132;16.848;2023-08-31T11:56:44;6.93;;;3.50;;
21424;SDS011;10873;51.132;16.848;2023-08-31T11:59:15;8.05;;;3.95;;
21424;SDS011;10873;51.132;16.848;2023-08-31T12:01:42;7.55;;;4.07;;
21424;SDS011;10873;51.132;16.848;2023-08-31T12:04:11;6.25;;;3.00;;
21424;SDS011;10873;51.132;16.848;2023-08-31T12:06:38;6.53;;;3.60;;
21424;SDS011;10873;51.132;16.848;2023-08-31T12:09:06;8.15;;;3.83;;
21424;SDS011;10873;51.132;16.848;2023-08-31T12:11:32;5.10;;;3.05;;
21424;SDS011;10873;51.132;16.848;2023-08-31T12:14:00;8.55;;;3.50;;
21424;SDS011;10873;51.132;16.848;2023-08-31T12:16:31;8.63;;;3.20;;
21424;SDS011;10873;51.132;16.848;2023-08-31T12:18:58;19.35;;;3.67;;
21424;SDS011;10873;51.132;16.848;2023-08-31T12:21:24;10.88;;;3.50;;
21424;SDS011;10873;51.132;16.848;2023-08-31T12:23:50;12.40;;;3.63;;
21424;SDS011;10873;51.132;16.848;2023-08-31T12:26:16;8.23;;;3.08;;
21424;SDS011;10873;51.132;16.848;2023-08-31T12:28:42;10.20;;;3.40;;
21424;SDS011;10873;51.132;16.848;2023-08-31T12:31:10;6.68;;;3.60;;
21424;SDS011;10873;51.132;16.848;2023-08-31T12:33:36;11.60;;;3.50;;
21424;SDS011;10873;51.132;16.848;2023-08-31T12:36:02;7.35;;;3.50;;
21424;SDS011;10873;51.132;16.848;2023-08-31T12:38:29;7.38;;;3.28;;
21424;SDS011;10873;51.132;16.848;2023-08-31T12:40:55;6.20;;;3.17;;
21424;SDS011;10873;51.132;16.848;2023-08-31T12:43:21;6.85;;;3.20;;
21424;SDS011;10873;51.132;16.848;2023-08-31T12:45:47;4.90;;;3.10;;
21424;SDS011;10873;51.132;16.848;2023-08-31T12:48:15;7.53;;;3.28;;
21424;SDS011;10873;51.132;16.848;2023-08-31T12:50:41;6.47;;;3.47;;
21424;SDS011;10873;51.132;16.848;2023-08-31T12:53:07;5.88;;;2.92;;
21424;SDS011;10873;51.132;16.848;2023-08-31T12:55:33;5.15;;;2.90;;
21424;SDS011;10873;51.132;16.848;2023-08-31T12:57:58;4.40;;;3.17;;
21424;SDS011;10873;51.132;16.848;2023-08-31T13:00:25;5.57;;;3.30;;
21424;SDS011;10873;51.132;16.848;2023-08-31T13:02:51;5.47;;;2.55;;
21424;SDS011;10873;51.132;16.848;2023-08-31T13:05:18;6.40;;;2.85;;
21424;SDS011;10873;51.132;16.848;2023-08-31T13:07:45;6.00;;;2.55;;
21424;SDS011;10873;51.132;16.848;2023-08-31T13:10:11;8.85;;;2.63;;
21424;SDS011;10873;51.132;16.848;2023-08-31T13:12:37;6.07;;;2.50;;
21424;SDS011;10873;51.132;16.848;2023-08-31T13:15:04;3.65;;;2.45;;
21424;SDS011;10873;51.132;16.848;2023-08-31T13:17:33;2.50;;;2.10;;
21424;SDS011;10873;51.132;16.848;2023-08-31T13:19:59;3.67;;;2.13;;
21424;SDS011;10873;51.132;16.848;2023-08-31T13:22:27;3.65;;;1.90;;
21424;SDS011;10873;51.132;16.848;2023-08-31T13:24:54;3.45;;;2.20;;
21424;SDS011;10873;51.132;16.848;2023-08-31T13:27:19;3.42;;;1.98;;
21424;SDS011;10873;51.132;16.848;2023-08-31T13:29:46;2.88;;;1.60;;
21424;SDS011;10873;51.132;16.848;2023-08-31T13:32:11;2.83;;;1.83;;
21424;SDS011;10873;51.132;16.848;2023-08-31T13:34:38;6.20;;;2.10;;
21424;SDS011;10873;51.132;16.848;2023-08-31T13:37:04;2.55;;;1.80;;
21424;SDS011;10873;51.132;16.848;2023-08-31T13:39:33;2.42;;;1.42;;
21424;SDS011;10873;51.132;16.848;2023-08-31T13:42:05;3.53;;;1.60;;
21424;SDS011;10873;51.132;16.848;2023-08-31T13:44:32;5.45;;;1.70;;
21424;SDS011;10873;51.132;16.848;2023-08-31T13:46:58;2.17;;;1.60;;
21424;SDS011;10873;51.132;16.848;2023-08-31T13:49:25;2.80;;;1.75;;
21424;SDS011;10873;51.132;16.848;2023-08-31T13:51:50;3.10;;;1.95;;
21424;SDS011;10873;51.132;16.848;2023-08-31T13:54:17;3.10;;;1.80;;
21424;SDS011;10873;51.132;16.848;2023-08-31T13:56:44;3.05;;;2.08;;
21424;SDS011;10873;51.132;16.848;2023-08-31T13:59:10;5.25;;;1.88;;
21424;SDS011;10873;51.132;16.848;2023-08-31T14:01:36;2.45;;;1.65;;
21424;SDS011;10873;51.132;16.848;2023-08-31T14:04:03;2.58;;;1.50;;
21424;SDS011;10873;51.132;16.848;2023-08-31T14:06:29;2.17;;;1.58;;
21424;SDS011;10873;51.132;16.848;2023-08-31T14:08:55;2.97;;;2.05;;
21424;SDS011;10873;51.132;16.848;2023-08-31T14:11:21;2.50;;;1.60;;
21424;SDS011;10873;51.132;16.848;2023-08-31T14:13:49;3.05;;;1.67;;
21424;SDS011;10873;51.132;16.848;2023-08-31T14:16:15;2.50;;;1.90;;
21424;SDS011;10873;51.132;16.848;2023-08-31T14:18:41;2.50;;;1.52;;
21424;SDS011;10873;51.132;16.848;2023-08-31T14:21:07;4.15;;;1.65;;
21424;SDS011;10873;51.132;16.848;2023-08-31T14:23:41;2.00;;;1.70;;
21424;SDS011;10873;51.132;16.848;2023-08-31T14:26:07;2.08;;;1.67;;
21424;SDS011;10873;51.132;16.848;2023-08-31T14:28:35;2.30;;;1.80;;
21424;SDS011;10873;51.132;16.848;2023-08-31T14:31:04;2.60;;;1.55;;
21424;SDS011;10873;51.132;16.848;2023-08-31T14:33:31;2.03;;;1.80;;
21424;SDS011;10873;51.132;16.848;2023-08-31T14:35:57;2.70;;;1.67;;
21424;SDS011;10873;51.132;16.848;2023-08-31T14:38:23;1.60;;;1.50;;
21424;SDS011;10873;51.132;16.848;2023-08-31T14:40:49;2.70;;;1.60;;
21424;SDS011;10873;51.132;16.848;2023-08-31T14:43:16;4.68;;;1.80;;
21424;SDS011;10873;51.132;16.848;2023-08-31T14:45:42;2.28;;;1.70;;